sensor_id;sensor_type;location;lat;lon;timestamp;P1;durP1;ratioP1;P2;durP2;ratioP2
23728;SDS011;12045;60.214;24.724;2022-11-15T03:45:41;0.40;;;0.40;;
23728;SDS011;12045;60.214;24.724;2022-11-15T03:48:14;0.40;;;0.40;;
23728;SDS011;12045;60.214;24.724;2022-11-15T04:43:49;0.30;;;0.30;;
23728;SDS011;12045;60.214;24.724;2022-11-15T04:46:17;0.30;;;0.30;;
23728;SDS011;12045;60.214;24.724;2022-11-15T04:48:44;0.30;;;0.30;;
23728;SDS011;12045;60.214;24.724;2022-11-15T04:51:12;0.30;;;0.30;;
23728;SDS011;12045;60.214;24.724;2022-11-15T04:56:15;0.30;;;0.30;;
23728;SDS011;12045;60.214;24.724;2022-11-15T04:59:01;0.32;;;0.30;;
23728;SDS011;12045;60.214;24.724;2022-11-15T05:01:44;0.30;;;0.30;;
23728;SDS011;12045;60.214;24.724;2022-11-15T05:04:25;0.20;;;0.20;;
23728;SDS011;12045;60.214;24.724;2022-11-15T05:07:08;0.30;;;0.30;;
23728;SDS011;12045;60.214;24.724;2022-11-15T05:09:39;0.20;;;0.20;;
23728;SDS011;12045;60.214;24.724;2022-11-15T05:12:20;0.20;;;0.20;;
23728;SDS011;12045;60.214;24.724;2022-11-15T05:14:51;0.30;;;0.30;;
23728;SDS011;12045;60.214;24.724;2022-11-15T05:17:21;0.30;;;0.30;;
23728;SDS011;12045;60.214;24.724;2022-11-15T05:19:51;0.30;;;0.30;;
23728;SDS011;12045;60.214;24.724;2022-11-15T05:22:34;0.55;;;0.30;;
23728;SDS011;12045;60.214;24.724;2022-11-15T09:17:00;2.28;;;0.40;;
23728;SDS011;12045;60.214;24.724;2022-11-15T09:23:01;0.38;;;0.38;;
23728;SDS011;12045;60.214;24.724;2022-11-15T09:25:33;0.40;;;0.40;;
23728;SDS011;12045;60.214;24.724;2022-11-15T09:28:17;0.35;;;0.35;;
23728;SDS011;12045;60.214;24.724;2022-11-15T09:30:45;0.40;;;0.40;;
23728;SDS011;12045;60.214;24.724;2022-11-15T09:33:14;0.35;;;0.35;;
23728;SDS011;12045;60.214;24.724;2022-11-15T09:36:06;0.40;;;0.40;;
23728;SDS011;12045;60.214;24.724;2022-11-15T09:38:41;0.30;;;0.30;;
23728;SDS011;12045;60.214;24.724;2022-11-15T09:51:53;0.40;;;0.40;;
23728;SDS011;12045;60.214;24.724;2022-11-15T09:54:47;0.60;;;0.50;;
23728;SDS011;12045;60.214;24.724;2022-11-15T10:00:42;0.40;;;0.40;;
23728;SDS011;12045;60.214;24.724;2022-11-15T10:03:24;0.40;;;0.40;;
23728;SDS011;12045;60.214;24.724;2022-11-15T10:06:21;0.30;;;0.30;;
23728;SDS011;12045;60.214;24.724;2022-11-15T10:12:38;0.40;;;0.40;;
23728;SDS011;12045;60.214;24.724;2022-11-15T10:15:33;0.40;;;0.40;;
23728;SDS011;12045;60.214;24.724;2022-11-15T10:22:41;0.40;;;0.40;;
23728;SDS011;12045;60.214;24.724;2022-11-15T10:26:30;0.32;;;0.32;;
23728;SDS011;12045;60.214;24.724;2022-11-15T10:29:24;0.40;;;0.40;;
23728;SDS011;12045;60.214;24.724;2022-11-15T10:37:08;0.40;;;0.40;;
23728;SDS011;12045;60.214;24.724;2022-11-15T10:40:35;0.40;;;0.40;;
23728;SDS011;12045;60.214;24.724;2022-11-15T10:46:40;0.40;;;0.40;;
23728;SDS011;12045;60.214;24.724;2022-11-15T10:52:19;0.40;;;0.40;;
23728;SDS011;12045;60.214;24.724;2022-11-15T10:55:03;1.13;;;0.55;;
23728;SDS011;12045;60.214;24.724;2022-11-15T10:57:49;0.45;;;0.45;;
23728;SDS011;12045;60.214;24.724;2022-11-15T11:00:43;0.40;;;0.40;;
23728;SDS011;12045;60.214;24.724;2022-11-15T11:10:19;0.40;;;0.40;;
23728;SDS011;12045;60.214;24.724;2022-11-15T11:13:20;0.40;;;0.40;;
23728;SDS011;12045;60.214;24.724;2022-11-15T11:25:23;0.40;;;0.40;;
23728;SDS011;12045;60.214;24.724;2022-11-15T11:28:30;0.40;;;0.40;;
23728;SDS011;12045;60.214;24.724;2022-11-15T11:43:46;0.50;;;0.50;;
23728;SDS011;12045;60.214;24.724;2022-11-15T11:47:15;0.50;;;0.50;;
23728;SDS011;12045;60.214;24.724;2022-11-15T11:49:46;0.73;;;0.60;;
23728;SDS011;12045;60.214;24.724;2022-11-15T11:52:29;0.50;;;0.50;;
23728;SDS011;12045;60.214;24.724;2022-11-15T12:06:49;0.50;;;0.50;;
23728;SDS011;12045;60.214;24.724;2022-11-15T12:09:53;0.55;;;0.52;;
23728;SDS011;12045;60.214;24.724;2022-11-15T12:12:36;0.85;;;0.60;;
23728;SDS011;12045;60.214;24.724;2022-11-15T12:18:20;0.60;;;0.60;;
23728;SDS011;12045;60.214;24.724;2022-11-15T12:21:02;0.82;;;0.50;;
23728;SDS011;12045;60.214;24.724;2022-11-15T12:23:40;0.60;;;0.60;;
23728;SDS011;12045;60.214;24.724;2022-11-15T12:29:18;0.50;;;0.50;;
23728;SDS011;12045;60.214;24.724;2022-11-15T12:32:01;0.50;;;0.50;;
23728;SDS011;12045;60.214;24.724;2022-11-15T12:34:35;0.80;;;0.50;;
23728;SDS011;12045;60.214;24.724;2022-11-15T12:45:51;0.52;;;0.52;;
23728;SDS011;12045;60.214;24.724;2022-11-15T12:51:05;0.50;;;0.50;;
23728;SDS011;12045;60.214;24.724;2022-11-15T12:53:50;0.55;;;0.50;;
23728;SDS011;12045;60.214;24.724;2022-11-15T12:56:36;0.57;;;0.57;;
23728;SDS011;12045;60.214;24.724;2022-11-15T12:59:07;0.60;;;0.60;;
23728;SDS011;12045;60.214;24.724;2022-11-15T13:04:36;0.43;;;0.43;;
23728;SDS011;12045;60.214;24.724;2022-11-15T13:07:04;1.40;;;0.70;;
23728;SDS011;12045;60.214;24.724;2022-11-15T13:14:58;0.65;;;0.60;;
23728;SDS011;12045;60.214;24.724;2022-11-15T13:22:27;0.65;;;0.65;;
23728;SDS011;12045;60.214;24.724;2022-11-15T13:33:20;0.70;;;0.70;;
23728;SDS011;12045;60.214;24.724;2022-11-15T13:36:06;0.98;;;0.60;;
23728;SDS011;12045;60.214;24.724;2022-11-15T13:38:45;0.60;;;0.60;;
23728;SDS011;12045;60.214;24.724;2022-11-15T13:41:29;0.73;;;0.63;;
23728;SDS011;12045;60.214;24.724;2022-11-15T13:44:00;0.50;;;0.50;;
23728;SDS011;12045;60.214;24.724;2022-11-15T13:46:33;0.50;;;0.50;;
23728;SDS011;12045;60.214;24.724;2022-11-15T13:49:02;0.50;;;0.50;;
23728;SDS011;12045;60.214;24.724;2022-11-15T13:51:46;0.50;;;0.50;;
23728;SDS011;12045;60.214;24.724;2022-11-15T13:56:57;0.80;;;0.60;;
23728;SDS011;12045;60.214;24.724;2022-11-15T13:59:31;1.25;;;0.70;;
23728;SDS011;12045;60.214;24.724;2022-11-15T14:02:12;0.68;;;0.50;;
23728;SDS011;12045;60.214;24.724;2022-11-15T14:04:46;0.75;;;0.60;;
23728;SDS011;12045;60.214;24.724;2022-11-15T14:07:18;0.50;;;0.50;;
23728;SDS011;12045;60.214;24.724;2022-11-15T14:09:48;0.60;;;0.60;;
23728;SDS011;12045;60.214;24.724;2022-11-15T14:12:30;0.60;;;0.60;;
23728;SDS011;12045;60.214;24.724;2022-11-15T14:14:59;0.70;;;0.70;;
23728;SDS011;12045;60.214;24.724;2022-11-15T14:17:44;0.60;;;0.60;;
23728;SDS011;12045;60.214;24.724;2022-11-15T14:20:59;0.50;;;0.50;;
23728;SDS011;12045;60.214;24.724;2022-11-15T14:23:28;0.90;;;0.63;;
23728;SDS011;12045;60.214;24.724;2022-11-15T14:25:55;0.52;;;0.52;;
23728;SDS011;12045;60.214;24.724;2022-11-15T14:30:52;1.15;;;0.70;;
23728;SDS011;12045;60.214;24.724;2022-11-15T14:36:10;0.70;;;0.70;;
23728;SDS011;12045;60.214;24.724;2022-11-15T14:38:45;0.55;;;0.55;;
23728;SDS011;12045;60.214;24.724;2022-11-15T14:41:17;2.05;;;0.70;;
23728;SDS011;12045;60.214;24.724;2022-11-15T14:43:54;0.70;;;0.70;;
23728;SDS011;12045;60.214;24.724;2022-11-15T14:46:23;0.60;;;0.60;;
23728;SDS011;12045;60.214;24.724;2022-11-15T14:48:53;0.50;;;0.50;;
23728;SDS011;12045;60.214;24.724;2022-11-15T14:51:21;0.60;;;0.60;;
23728;SDS011;12045;60.214;24.724;2022-11-15T14:53:48;0.50;;;0.50;;
23728;SDS011;12045;60.214;24.724;2022-11-15T14:56:29;0.95;;;0.70;;
23728;SDS011;12045;60.214;24.724;2022-11-15T14:58:57;0.50;;;0.50;;
23728;SDS011;12045;60.214;24.724;2022-11-15T15:01:26;0.47;;;0.40;;
23728;SDS011;12045;60.214;24.724;2022-11-15T15:03:59;0.50;;;0.50;;
23728;SDS011;12045;60.214;24.724;2022-11-15T15:06:27;0.55;;;0.52;;
23728;SDS011;12045;60.214;24.724;2022-11-15T15:08:56;0.50;;;0.50;;
23728;SDS011;12045;60.214;24.724;2022-11-15T15:11:29;1.80;;;0.70;;
23728;SDS011;12045;60.214;24.724;2022-11-15T15:14:08;0.55;;;0.55;;
23728;SDS011;12045;60.214;24.724;2022-11-15T15:16:35;0.82;;;0.68;;
23728;SDS011;12045;60.214;24.724;2022-11-15T15:19:03;0.50;;;0.50;;
23728;SDS011;12045;60.214;24.724;2022-11-15T15:21:31;0.93;;;0.70;;
23728;SDS011;12045;60.214;24.724;2022-11-15T15:24:03;0.75;;;0.60;;
23728;SDS011;12045;60.214;24.724;2022-11-15T15:26:31;0.82;;;0.82;;
23728;SDS011;12045;60.214;24.724;2022-11-15T15:29:03;1.00;;;0.60;;
23728;SDS011;12045;60.214;24.724;2022-11-15T15:31:30;1.48;;;0.63;;
23728;SDS011;12045;60.214;24.724;2022-11-15T15:33:59;0.60;;;0.60;;
23728;SDS011;12045;60.214;24.724;2022-11-15T15:36:27;0.52;;;0.52;;
23728;SDS011;12045;60.214;24.724;2022-11-15T15:38:55;0.63;;;0.60;;
23728;SDS011;12045;60.214;24.724;2022-11-15T15:41:24;0.70;;;0.60;;
23728;SDS011;12045;60.214;24.724;2022-11-15T15:43:51;0.50;;;0.50;;
23728;SDS011;12045;60.214;24.724;2022-11-15T15:46:19;0.75;;;0.60;;
23728;SDS011;12045;60.214;24.724;2022-11-15T15:48:47;0.40;;;0.40;;
23728;SDS011;12045;60.214;24.724;2022-11-15T15:51:15;0.50;;;0.50;;
23728;SDS011;12045;60.214;24.724;2022-11-15T15:53:47;0.85;;;0.80;;
23728;SDS011;12045;60.214;24.724;2022-11-15T15:56:27;0.60;;;0.60;;
23728;SDS011;12045;60.214;24.724;2022-11-15T15:58:55;1.38;;;1.27;;
23728;SDS011;12045;60.214;24.724;2022-11-15T16:01:22;0.70;;;0.70;;
23728;SDS011;12045;60.214;24.724;2022-11-15T16:03:50;1.02;;;1.02;;
23728;SDS011;12045;60.214;24.724;2022-11-15T16:09:12;0.82;;;0.70;;
23728;SDS011;12045;60.214;24.724;2022-11-15T16:11:45;0.95;;;0.70;;
23728;SDS011;12045;60.214;24.724;2022-11-15T16:14:13;0.75;;;0.68;;
23728;SDS011;12045;60.214;24.724;2022-11-15T16:16:40;0.60;;;0.60;;
23728;SDS011;12045;60.214;24.724;2022-11-15T16:19:08;1.10;;;0.90;;
23728;SDS011;12045;60.214;24.724;2022-11-15T16:21:37;1.05;;;0.95;;
23728;SDS011;12045;60.214;24.724;2022-11-15T16:24:04;1.02;;;0.90;;
23728;SDS011;12045;60.214;24.724;2022-11-15T16:26:32;0.98;;;0.90;;
23728;SDS011;12045;60.214;24.724;2022-11-15T16:29:02;0.50;;;0.50;;
23728;SDS011;12045;60.214;24.724;2022-11-15T16:31:30;0.70;;;0.60;;
23728;SDS011;12045;60.214;24.724;2022-11-15T16:33:57;0.70;;;0.70;;
23728;SDS011;12045;60.214;24.724;2022-11-15T16:36:25;0.90;;;0.70;;
23728;SDS011;12045;60.214;24.724;2022-11-15T16:38:56;2.33;;;1.20;;
23728;SDS011;12045;60.214;24.724;2022-11-15T16:41:25;3.38;;;1.40;;
23728;SDS011;12045;60.214;24.724;2022-11-15T16:43:53;1.75;;;1.10;;
23728;SDS011;12045;60.214;24.724;2022-11-15T16:46:23;0.80;;;0.80;;
23728;SDS011;12045;60.214;24.724;2022-11-15T16:48:52;0.70;;;0.70;;
23728;SDS011;12045;60.214;24.724;2022-11-15T16:51:20;3.08;;;1.35;;
23728;SDS011;12045;60.214;24.724;2022-11-15T16:53:49;1.95;;;1.42;;
23728;SDS011;12045;60.214;24.724;2022-11-15T16:56:26;1.10;;;1.00;;
23728;SDS011;12045;60.214;24.724;2022-11-15T16:58:56;0.70;;;0.70;;
23728;SDS011;12045;60.214;24.724;2022-11-15T17:01:25;1.50;;;0.60;;
23728;SDS011;12045;60.214;24.724;2022-11-15T17:03:54;1.13;;;0.88;;
23728;SDS011;12045;60.214;24.724;2022-11-15T17:06:24;0.50;;;0.50;;
23728;SDS011;12045;60.214;24.724;2022-11-15T17:08:52;0.60;;;0.60;;
23728;SDS011;12045;60.214;24.724;2022-11-15T17:11:21;0.50;;;0.50;;
23728;SDS011;12045;60.214;24.724;2022-11-15T17:13:48;0.63;;;0.63;;
23728;SDS011;12045;60.214;24.724;2022-11-15T17:16:18;0.50;;;0.50;;
23728;SDS011;12045;60.214;24.724;2022-11-15T17:18:49;3.78;;;1.48;;
23728;SDS011;12045;60.214;24.724;2022-11-15T17:21:19;0.70;;;0.70;;
23728;SDS011;12045;60.214;24.724;2022-11-15T17:23:48;1.83;;;0.80;;
23728;SDS011;12045;60.214;24.724;2022-11-15T17:26:15;3.35;;;0.90;;
23728;SDS011;12045;60.214;24.724;2022-11-15T17:28:57;1.80;;;0.60;;
23728;SDS011;12045;60.214;24.724;2022-11-15T17:31:27;0.52;;;0.52;;
23728;SDS011;12045;60.214;24.724;2022-11-15T17:33:56;2.00;;;0.73;;
23728;SDS011;12045;60.214;24.724;2022-11-15T17:36:23;0.70;;;0.70;;
23728;SDS011;12045;60.214;24.724;2022-11-15T17:38:51;0.70;;;0.70;;
23728;SDS011;12045;60.214;24.724;2022-11-15T17:41:25;0.70;;;0.70;;
23728;SDS011;12045;60.214;24.724;2022-11-15T17:43:56;0.70;;;0.70;;
23728;SDS011;12045;60.214;24.724;2022-11-15T17:46:26;2.05;;;0.93;;
23728;SDS011;12045;60.214;24.724;2022-11-15T17:48:55;0.82;;;0.80;;
23728;SDS011;12045;60.214;24.724;2022-11-15T17:51:23;0.80;;;0.80;;
23728;SDS011;12045;60.214;24.724;2022-11-15T17:53:51;0.57;;;0.57;;
23728;SDS011;12045;60.214;24.724;2022-11-15T17:56:19;0.80;;;0.80;;
23728;SDS011;12045;60.214;24.724;2022-11-15T17:58:49;0.65;;;0.65;;
23728;SDS011;12045;60.214;24.724;2022-11-15T18:01:19;0.98;;;0.60;;
23728;SDS011;12045;60.214;24.724;2022-11-15T18:03:52;0.50;;;0.50;;
23728;SDS011;12045;60.214;24.724;2022-11-15T18:06:21;0.70;;;0.70;;
23728;SDS011;12045;60.214;24.724;2022-11-15T18:08:50;1.65;;;0.70;;
23728;SDS011;12045;60.214;24.724;2022-11-15T18:11:20;0.70;;;0.70;;
23728;SDS011;12045;60.214;24.724;2022-11-15T18:13:50;0.60;;;0.60;;
23728;SDS011;12045;60.214;24.724;2022-11-15T18:16:20;0.63;;;0.63;;
23728;SDS011;12045;60.214;24.724;2022-11-15T18:18:52;0.70;;;0.60;;
23728;SDS011;12045;60.214;24.724;2022-11-15T18:21:21;0.63;;;0.60;;
23728;SDS011;12045;60.214;24.724;2022-11-15T18:23:55;0.77;;;0.70;;
23728;SDS011;12045;60.214;24.724;2022-11-15T18:26:25;0.65;;;0.65;;
23728;SDS011;12045;60.214;24.724;2022-11-15T18:28:55;0.50;;;0.50;;
23728;SDS011;12045;60.214;24.724;2022-11-15T18:31:25;0.70;;;0.70;;
23728;SDS011;12045;60.214;24.724;2022-11-15T18:33:54;0.77;;;0.77;;
23728;SDS011;12045;60.214;24.724;2022-11-15T18:36:24;0.97;;;0.70;;
23728;SDS011;12045;60.214;24.724;2022-11-15T18:38:54;1.40;;;0.63;;
23728;SDS011;12045;60.214;24.724;2022-11-15T18:41:28;0.82;;;0.60;;
23728;SDS011;12045;60.214;24.724;2022-11-15T18:43:57;0.60;;;0.60;;
23728;SDS011;12045;60.214;24.724;2022-11-15T18:46:27;0.60;;;0.60;;
23728;SDS011;12045;60.214;24.724;2022-11-15T18:48:57;0.70;;;0.70;;
23728;SDS011;12045;60.214;24.724;2022-11-15T18:51:27;0.52;;;0.52;;
23728;SDS011;12045;60.214;24.724;2022-11-15T18:53:57;1.03;;;0.80;;
23728;SDS011;12045;60.214;24.724;2022-11-15T18:56:27;0.70;;;0.70;;
23728;SDS011;12045;60.214;24.724;2022-11-15T18:58:57;1.17;;;1.00;;
23728;SDS011;12045;60.214;24.724;2022-11-15T19:01:27;1.27;;;1.00;;
23728;SDS011;12045;60.214;24.724;2022-11-15T19:04:03;0.83;;;0.80;;
23728;SDS011;12045;60.214;24.724;2022-11-15T19:06:38;0.60;;;0.60;;
23728;SDS011;12045;60.214;24.724;2022-11-15T19:09:07;3.93;;;0.90;;
23728;SDS011;12045;60.214;24.724;2022-11-15T19:11:36;0.97;;;0.87;;
23728;SDS011;12045;60.214;24.724;2022-11-15T19:14:13;0.80;;;0.80;;
23728;SDS011;12045;60.214;24.724;2022-11-15T19:16:42;0.87;;;0.87;;
23728;SDS011;12045;60.214;24.724;2022-11-15T19:19:12;1.02;;;0.93;;
23728;SDS011;12045;60.214;24.724;2022-11-15T19:21:42;0.87;;;0.87;;
23728;SDS011;12045;60.214;24.724;2022-11-15T19:24:10;2.30;;;1.30;;
23728;SDS011;12045;60.214;24.724;2022-11-15T19:26:37;1.57;;;1.00;;
23728;SDS011;12045;60.214;24.724;2022-11-15T19:29:06;2.60;;;1.57;;
23728;SDS011;12045;60.214;24.724;2022-11-15T19:31:36;2.07;;;1.20;;
23728;SDS011;12045;60.214;24.724;2022-11-15T19:34:04;1.38;;;1.13;;
23728;SDS011;12045;60.214;24.724;2022-11-15T19:36:36;1.48;;;1.10;;
23728;SDS011;12045;60.214;24.724;2022-11-15T19:39:06;1.20;;;1.10;;
23728;SDS011;12045;60.214;24.724;2022-11-15T19:41:39;0.60;;;0.60;;
23728;SDS011;12045;60.214;24.724;2022-11-15T19:44:09;1.10;;;1.00;;
23728;SDS011;12045;60.214;24.724;2022-11-15T19:46:37;1.10;;;1.00;;
23728;SDS011;12045;60.214;24.724;2022-11-15T19:49:06;1.20;;;0.90;;
23728;SDS011;12045;60.214;24.724;2022-11-15T19:51:37;1.40;;;1.30;;
23728;SDS011;12045;60.214;24.724;2022-11-15T19:54:07;0.70;;;0.70;;
23728;SDS011;12045;60.214;24.724;2022-11-15T19:56:36;1.47;;;0.90;;
23728;SDS011;12045;60.214;24.724;2022-11-15T19:59:05;1.70;;;0.83;;
23728;SDS011;12045;60.214;24.724;2022-11-15T20:01:34;0.60;;;0.60;;
23728;SDS011;12045;60.214;24.724;2022-11-15T20:04:04;0.60;;;0.60;;
23728;SDS011;12045;60.214;24.724;2022-11-15T20:06:35;0.50;;;0.50;;
23728;SDS011;12045;60.214;24.724;2022-11-15T20:09:05;0.67;;;0.67;;
23728;SDS011;12045;60.214;24.724;2022-11-15T20:11:33;0.67;;;0.67;;
23728;SDS011;12045;60.214;24.724;2022-11-15T20:14:03;0.73;;;0.73;;
23728;SDS011;12045;60.214;24.724;2022-11-15T20:16:33;0.60;;;0.60;;
23728;SDS011;12045;60.214;24.724;2022-11-15T20:19:02;1.07;;;0.70;;
23728;SDS011;12045;60.214;24.724;2022-11-15T20:21:29;0.60;;;0.60;;
23728;SDS011;12045;60.214;24.724;2022-11-15T20:23:56;0.80;;;0.80;;
23728;SDS011;12045;60.214;24.724;2022-11-15T20:26:24;0.90;;;0.60;;
23728;SDS011;12045;60.214;24.724;2022-11-15T20:28:52;0.90;;;0.90;;
23728;SDS011;12045;60.214;24.724;2022-11-15T20:31:21;0.80;;;0.80;;
23728;SDS011;12045;60.214;24.724;2022-11-15T20:33:49;0.70;;;0.70;;
23728;SDS011;12045;60.214;24.724;2022-11-15T20:36:17;0.60;;;0.60;;
23728;SDS011;12045;60.214;24.724;2022-11-15T20:38:47;1.00;;;0.90;;
23728;SDS011;12045;60.214;24.724;2022-11-15T20:41:14;0.93;;;0.93;;
23728;SDS011;12045;60.214;24.724;2022-11-15T20:43:42;0.90;;;0.90;;
23728;SDS011;12045;60.214;24.724;2022-11-15T20:46:10;1.10;;;1.00;;
23728;SDS011;12045;60.214;24.724;2022-11-15T20:48:39;1.10;;;1.00;;
23728;SDS011;12045;60.214;24.724;2022-11-15T20:51:11;1.10;;;1.00;;
23728;SDS011;12045;60.214;24.724;2022-11-15T20:53:44;1.70;;;1.00;;
23728;SDS011;12045;60.214;24.724;2022-11-15T20:56:14;1.00;;;0.90;;
23728;SDS011;12045;60.214;24.724;2022-11-15T20:58:45;1.30;;;1.20;;
23728;SDS011;12045;60.214;24.724;2022-11-15T21:01:13;0.90;;;0.80;;
23728;SDS011;12045;60.214;24.724;2022-11-15T21:03:42;0.80;;;0.80;;
23728;SDS011;12045;60.214;24.724;2022-11-15T21:06:10;0.82;;;0.80;;
23728;SDS011;12045;60.214;24.724;2022-11-15T21:08:38;1.10;;;1.00;;
23728;SDS011;12045;60.214;24.724;2022-11-15T21:11:24;1.00;;;0.90;;
23728;SDS011;12045;60.214;24.724;2022-11-15T21:14:10;2.03;;;1.20;;
23728;SDS011;12045;60.214;24.724;2022-11-15T21:16:38;2.30;;;1.10;;
23728;SDS011;12045;60.214;24.724;2022-11-15T21:19:05;1.20;;;1.10;;
23728;SDS011;12045;60.214;24.724;2022-11-15T21:21:36;1.00;;;0.90;;
23728;SDS011;12045;60.214;24.724;2022-11-15T21:24:04;2.25;;;1.25;;
23728;SDS011;12045;60.214;24.724;2022-11-15T21:26:34;0.90;;;0.80;;
23728;SDS011;12045;60.214;24.724;2022-11-15T21:29:02;0.80;;;0.80;;
23728;SDS011;12045;60.214;24.724;2022-11-15T21:31:30;0.60;;;0.60;;
23728;SDS011;12045;60.214;24.724;2022-11-15T21:34:01;0.80;;;0.80;;
23728;SDS011;12045;60.214;24.724;2022-11-15T21:36:29;0.77;;;0.77;;
23728;SDS011;12045;60.214;24.724;2022-11-15T21:38:57;1.30;;;0.60;;
23728;SDS011;12045;60.214;24.724;2022-11-15T21:41:24;0.83;;;0.80;;
23728;SDS011;12045;60.214;24.724;2022-11-15T21:43:55;0.70;;;0.70;;
23728;SDS011;12045;60.214;24.724;2022-11-15T21:46:24;0.50;;;0.50;;
23728;SDS011;12045;60.214;24.724;2022-11-15T21:48:51;0.90;;;0.90;;
23728;SDS011;12045;60.214;24.724;2022-11-15T21:51:19;0.70;;;0.70;;
23728;SDS011;12045;60.214;24.724;2022-11-15T21:53:47;0.83;;;0.83;;
23728;SDS011;12045;60.214;24.724;2022-11-15T21:56:14;0.80;;;0.80;;
23728;SDS011;12045;60.214;24.724;2022-11-15T21:58:42;2.23;;;0.97;;
23728;SDS011;12045;60.214;24.724;2022-11-15T22:01:09;0.63;;;0.63;;
23728;SDS011;12045;60.214;24.724;2022-11-15T22:03:57;0.80;;;0.80;;
23728;SDS011;12045;60.214;24.724;2022-11-15T22:06:24;0.63;;;0.63;;
23728;SDS011;12045;60.214;24.724;2022-11-15T22:08:51;0.80;;;0.80;;
23728;SDS011;12045;60.214;24.724;2022-11-15T22:11:19;0.90;;;0.70;;
23728;SDS011;12045;60.214;24.724;2022-11-15T22:13:46;0.73;;;0.73;;
23728;SDS011;12045;60.214;24.724;2022-11-15T22:16:14;0.80;;;0.80;;
23728;SDS011;12045;60.214;24.724;2022-11-15T22:18:41;0.50;;;0.50;;
23728;SDS011;12045;60.214;24.724;2022-11-15T22:21:10;0.80;;;0.80;;
23728;SDS011;12045;60.214;24.724;2022-11-15T22:23:41;0.80;;;0.80;;
23728;SDS011;12045;60.214;24.724;2022-11-15T22:26:10;0.80;;;0.60;;
23728;SDS011;12045;60.214;24.724;2022-11-15T22:28:39;0.80;;;0.80;;
23728;SDS011;12045;60.214;24.724;2022-11-15T22:31:07;0.70;;;0.70;;
23728;SDS011;12045;60.214;24.724;2022-11-15T22:33:35;0.97;;;0.90;;
23728;SDS011;12045;60.214;24.724;2022-11-15T22:36:03;0.80;;;0.80;;
23728;SDS011;12045;60.214;24.724;2022-11-15T22:38:31;0.60;;;0.60;;
23728;SDS011;12045;60.214;24.724;2022-11-15T22:40:59;0.80;;;0.80;;
23728;SDS011;12045;60.214;24.724;2022-11-15T22:43:28;1.20;;;1.10;;
23728;SDS011;12045;60.214;24.724;2022-11-15T22:45:57;0.60;;;0.60;;
23728;SDS011;12045;60.214;24.724;2022-11-15T22:48:27;0.80;;;0.80;;
23728;SDS011;12045;60.214;24.724;2022-11-15T22:50:56;0.90;;;0.90;;
23728;SDS011;12045;60.214;24.724;2022-11-15T22:53:25;0.70;;;0.70;;
23728;SDS011;12045;60.214;24.724;2022-11-15T22:55:57;1.00;;;0.90;;
23728;SDS011;12045;60.214;24.724;2022-11-15T22:58:26;0.70;;;0.70;;
23728;SDS011;12045;60.214;24.724;2022-11-15T23:00:57;1.13;;;1.03;;
23728;SDS011;12045;60.214;24.724;2022-11-15T23:03:44;1.30;;;1.20;;
23728;SDS011;12045;60.214;24.724;2022-11-15T23:06:12;1.00;;;1.00;;
23728;SDS011;12045;60.214;24.724;2022-11-15T23:08:41;1.20;;;1.10;;
23728;SDS011;12045;60.214;24.724;2022-11-15T23:11:09;1.03;;;1.00;;
23728;SDS011;12045;60.214;24.724;2022-11-15T23:13:55;1.13;;;1.03;;
23728;SDS011;12045;60.214;24.724;2022-11-15T23:16:23;1.20;;;1.10;;
23728;SDS011;12045;60.214;24.724;2022-11-15T23:19:04;1.10;;;1.00;;
23728;SDS011;12045;60.214;24.724;2022-11-15T23:21:34;1.07;;;0.97;;
23728;SDS011;12045;60.214;24.724;2022-11-15T23:24:22;0.90;;;0.90;;
23728;SDS011;12045;60.214;24.724;2022-11-15T23:26:52;2.03;;;1.10;;
23728;SDS011;12045;60.214;24.724;2022-11-15T23:29:22;1.47;;;1.20;;
23728;SDS011;12045;60.214;24.724;2022-11-15T23:31:52;0.97;;;0.93;;
23728;SDS011;12045;60.214;24.724;2022-11-15T23:34:43;0.90;;;0.90;;
23728;SDS011;12045;60.214;24.724;2022-11-15T23:37:12;1.30;;;1.20;;
23728;SDS011;12045;60.214;24.724;2022-11-15T23:39:41;1.10;;;1.00;;
23728;SDS011;12045;60.214;24.724;2022-11-15T23:42:08;1.17;;;1.00;;
23728;SDS011;12045;60.214;24.724;2022-11-15T23:44:46;1.50;;;1.10;;
23728;SDS011;12045;60.214;24.724;2022-11-15T23:47:17;1.47;;;1.33;;
23728;SDS011;12045;60.214;24.724;2022-11-15T23:49:45;1.00;;;0.90;;
23728;SDS011;12045;60.214;24.724;2022-11-15T23:52:14;1.40;;;1.10;;
23728;SDS011;12045;60.214;24.724;2022-11-15T23:54:42;1.30;;;1.20;;
23728;SDS011;12045;60.214;24.724;2022-11-15T23:57:10;1.33;;;1.20;;
23728;SDS011;12045;60.214;24.724;2022-11-15T23:59:40;1.37;;;1.27;;
